Ride Results

Mirboo North (19-02-1989)
Ride distance: 80.0 km

Outcomes - Mirboo North (19-02-1989)
Division No. of Entries Retired / DNE Completed Withdrawn Ineligible V/O Percentage Completed
HW 12 - 5 - - 7 41.67%
MW 15 - 10 1 - 4 66.67%
LW 18 - 12 - - 6 66.67%
JN 9 - 6 - - 3 66.67%
Totals 54 - 33 1 - 20 61.11%
Results - Mirboo North (19-02-1989)
No. Rider Horse Place Time Leg Speeds Total
Km/Hr
H/R bpm
Heavyweight
2251 Robert Punicki Lancefield Springfield 1 4:34:00 19.9, 15.5 17.52 42, 44, 56 (Avg:50)
2253 Trevor Crotty Tassie Drifter 2 4:56:56 17.0, 15.3 16.17 36, 48, 60 (Avg:54)
2259 Craig Seath Fiery Gem 3 5:10:15 18.8, 13.0 15.47 30, 46, 56 (Avg:51)
2257 Norm Whitelaw Zane 4 5:25:40 19.6, 11.7 14.74 40, 52, 50 (Avg:51)
2255 Ron Morton Southwinds Shadow 5 6:30:30 14.6, 10.5 12.29 29, 42, 60 (Avg:51)
R11 Charlie Muller Durango Regena Heart Rate L2 0:00:00 15.9, 10.0 - 42, 48, 62 (Avg:55)
R8 Edward (Ted) Reid Benita Shadow Heart Rate L2 0:00:00 13.7, 10.9 - 44, 54, 64 (Avg:59)
R6 John Sellens Bo Heart Rate L2 0:00:00 12.4, 11.4 - 35, 54, 72 (Avg:63)
R5 David Beardsley Splash Heart Rate L1 0:00:00 15.0 - 40, 58 (Avg:58)
R12 Roy Noble Dusky Lame L1 0:00:00 17.0 - 35, 42 (Avg:42)
R14 Laurence Shiels Sheeba Lame L1 0:00:00 12.9 - 44, 50 (Avg:50)
R4 Alan Tiplady Ben Lame L1 0:00:00 12.9 - 40, 44 (Avg:44)
Middleweight
2249 Wally Webb Telltale 1 (BC) 4:00:40 22.0, 18.2 19.94 40, 42, 56 (Avg:49)
2250 Barbara Mason Maroo Mathew 2 4:00:45 19.6, 20.2 19.94 36, 48, 56 (Avg:52)
2252 Jack Boswell Warrondi Eden 3 4:47:45 18.1, 15.4 16.68 38, 46, 52 (Avg:49)
2254 Mike Sheldon Wen-way Casheen 4 4:56:58 17.0, 15.3 16.16 40, 44, 48 (Avg:46)
2261 Ian Drummond Ibn Light 5 4:58:55 19.0, 13.8 16.06 44, 44, 50 (Avg:47)
2260 James Thiveos Spartacus 6 4:59:00 17.0, 15.1 16.05 36, 44, 56 (Avg:50)
2258 Hans Peuker Patience 7 5:24:00 16.9, 13.1 14.81 36, 44, 48 (Avg:46)
2256 Robin Pitzer Mathoura Juba 8 5:30:15 16.6, 12.8 14.53 42, 45, 52 (Avg:48)
28472 Peter Obrien Ajana Storm Angel 9 6:42:10 12.9, 11.1 11.94 36, 48, 48 (Avg:48)
2262 Ken Clarke Scotty 10 7:16:00 12.3, 9.9 11.01 42, 48, 60 (Avg:54)
B9 Randy Cowan Junior Heart Rate L2 0:00:00 16.1, 13.0 - 34, 52, 70 (Avg:61)
B12 Melva Keep Thorough Gent Heart Rate L2 0:00:00 20.6, 15.5 - 38, 50, 70 (Avg:60)
B18 Jezza Cicero Kezza Lame L1 0:00:00 12.7 - 42, 44 (Avg:44)
B6 Wayne Young Jessie Lame L1 0:00:00 15.1 - 40, 44 (Avg:44)
B11 Brian Keep Doran Park Jude Widthdrawn P/R 0:00:00 - - 39
Lightweight
2263 Carole Bradley Doran Park Comet 1 4:11:45 20.6, 17.6 19.07 39, 52, 60 (Avg:56)
2264 Alexa Ryhorchuk Pukwudji 2 4:37:15 18.8, 15.9 17.31 46, 52, 54 (Avg:53)
2265 Robyn Lindholm Floyd 3 4:47:50 18.1, 15.4 16.68 41, 42, 48 (Avg:45)
2266 Jane Sheldon Monterey Marita 4 4:56:59 16.9, 15.4 16.16 36, 48, 56 (Avg:52)
2267 Tim Perks Killarney 5 6:03:20 17.5, 10.6 13.21 36, 54, 58 (Avg:56)
2268 Sue Woods Yarraview Georgette 6 6:21:15 15.7, 10.4 12.59 38, 48, 52 (Avg:50)
2269 Judy Muller Durango Basheba 7 6:28:00 15.9, 10.0 12.37 38, 42, 51 (Avg:46)
2270 Jean Morton Southwinds Samantha 8 6:30:33 14.6, 10.5 12.29 29, 44, 54 (Avg:49)
2271 Lillian Watsford Cheraz 9 6:34:45 13.7, 10.8 12.16 32, 50, 50 (Avg:50)
2272 Robyn Harris Rowan 10 6:35:00 12.7, 11.5 12.15 37, 44, 48 (Avg:46)
2273 Samantha Obrien Charlotte 11 6:42:15 12.9, 11.0 11.93 40, 48, 52 (Avg:50)
2274 Libby Martin Tojo 12 7:15:30 12.3, 9.9 11.02 42, 44, 46 (Avg:45)
w24 Lynette Barrett Andy Heart Rate L2 0:00:00 18.8, 15.9 - 40, 48, 76 (Avg:62)
W18 Sally Cowan Waitara Hobo Lame L2 0:00:00 16.1, 13.0 - 38, 42, 52 (Avg:47)
W17 Cherie Cowan Waitara Mr Green Lame L1 0:00:00 12.1 - 33, 44 (Avg:44)
W22 Janet Hunter Windsong Nazar Heart Rate L1 0:00:00 19.0 - 40, 56 (Avg:56)
W25 Lissa Rietveld Alpine Way Lame L1 0:00:00 12.4 - 32, 48 (Avg:48)
W14 Nicole Russell Doran Park Minder Lame L1 0:00:00 20.6 - 38, 50 (Avg:50)
Junior
2275 Matt Milne Chanel 1 (BC) 4:13:00 19.8, 18.1 18.97 32, 42, 44 (Avg:43)
2276 Clint Cowan Stir Fry 2 6:26:10 15.1, 10.5 12.43 32, 44, 53 (Avg:48)
2277 Sandra Graham Kit Kat 3 6:26:12 15.0, 10.5 12.43 30, 46, 49 (Avg:47)
2278 Kerrie Gabb Krs 4 6:26:15 12.9, 11.9 12.43 46, 44, 46 (Avg:45)
2279 Paul Marsh Jadelle 5 6:30:35 14.6, 10.5 12.29 45, 52, 58 (Avg:55)
2280 Leanne Duff Rhoney 6 6:30:36 14.7, 10.5 12.29 40, 44, 56 (Avg:50)
Y22 Aimee Spiegel Langholm Glendee Heart Rate L2 0:00:00 19.6, 17.3 - 40, 48, 70 (Avg:59)
Y24 Rebecca Tiplady Charlie Lame L2 0:00:00 12.7, 11.2 - 39, 48, 56 (Avg:52)
Y14 Cindy Barrett Teena Heart Rate L1 0:00:00 18.8 - 36, 68 (Avg:68)